sensor_id;sensor_type;location;lat;lon;timestamp;P1;durP1;ratioP1;P2;durP2;ratioP2
10985;SDS011;5546;48.714;8.738;2022-11-12T00:00:29;5.67;;;5.10;;
10985;SDS011;5546;48.714;8.738;2022-11-12T00:02:55;5.10;;;4.40;;
10985;SDS011;5546;48.714;8.738;2022-11-12T00:05:21;6.17;;;4.37;;
10985;SDS011;5546;48.714;8.738;2022-11-12T00:07:46;5.27;;;4.67;;
10985;SDS011;5546;48.714;8.738;2022-11-12T00:10:12;5.77;;;4.67;;
10985;SDS011;5546;48.714;8.738;2022-11-12T00:12:37;4.43;;;4.03;;
10985;SDS011;5546;48.714;8.738;2022-11-12T00:15:03;4.87;;;4.47;;
10985;SDS011;5546;48.714;8.738;2022-11-12T00:17:29;5.70;;;4.13;;
10985;SDS011;5546;48.714;8.738;2022-11-12T00:19:54;5.37;;;4.00;;
10985;SDS011;5546;48.714;8.738;2022-11-12T00:22:20;4.73;;;4.20;;
10985;SDS011;5546;48.714;8.738;2022-11-12T00:24:46;4.73;;;4.23;;
10985;SDS011;5546;48.714;8.738;2022-11-12T00:27:12;4.83;;;4.20;;
10985;SDS011;5546;48.714;8.738;2022-11-12T00:29:38;6.33;;;3.73;;
10985;SDS011;5546;48.714;8.738;2022-11-12T00:32:07;4.13;;;3.73;;
10985;SDS011;5546;48.714;8.738;2022-11-12T00:34:33;8.53;;;4.33;;
10985;SDS011;5546;48.714;8.738;2022-11-12T00:36:59;7.17;;;4.20;;
10985;SDS011;5546;48.714;8.738;2022-11-12T00:39:25;4.53;;;4.10;;
10985;SDS011;5546;48.714;8.738;2022-11-12T00:41:51;5.50;;;4.33;;
10985;SDS011;5546;48.714;8.738;2022-11-12T00:44:17;5.13;;;4.57;;
10985;SDS011;5546;48.714;8.738;2022-11-12T00:46:43;4.73;;;4.23;;
10985;SDS011;5546;48.714;8.738;2022-11-12T00:49:08;4.70;;;4.20;;
10985;SDS011;5546;48.714;8.738;2022-11-12T00:51:34;7.67;;;4.00;;
10985;SDS011;5546;48.714;8.738;2022-11-12T00:54:00;3.83;;;3.53;;
10985;SDS011;5546;48.714;8.738;2022-11-12T00:56:26;3.87;;;3.47;;
10985;SDS011;5546;48.714;8.738;2022-11-12T00:58:51;4.00;;;3.60;;
10985;SDS011;5546;48.714;8.738;2022-11-12T01:01:17;4.17;;;3.77;;
10985;SDS011;5546;48.714;8.738;2022-11-12T01:03:42;3.97;;;3.57;;
10985;SDS011;5546;48.714;8.738;2022-11-12T01:06:15;4.47;;;3.70;;
10985;SDS011;5546;48.714;8.738;2022-11-12T01:08:42;4.83;;;3.30;;
10985;SDS011;5546;48.714;8.738;2022-11-12T01:11:12;4.03;;;3.63;;
10985;SDS011;5546;48.714;8.738;2022-11-12T01:13:43;4.27;;;3.87;;
10985;SDS011;5546;48.714;8.738;2022-11-12T01:16:12;4.37;;;3.97;;
10985;SDS011;5546;48.714;8.738;2022-11-12T01:18:40;5.10;;;3.73;;
10985;SDS011;5546;48.714;8.738;2022-11-12T01:21:06;4.93;;;3.93;;
10985;SDS011;5546;48.714;8.738;2022-11-12T01:23:32;3.73;;;3.37;;
10985;SDS011;5546;48.714;8.738;2022-11-12T01:26:03;4.50;;;3.80;;
10985;SDS011;5546;48.714;8.738;2022-11-12T01:28:30;4.10;;;3.80;;
10985;SDS011;5546;48.714;8.738;2022-11-12T01:30:55;4.30;;;3.90;;
10985;SDS011;5546;48.714;8.738;2022-11-12T01:33:21;5.20;;;3.67;;
10985;SDS011;5546;48.714;8.738;2022-11-12T01:35:46;4.63;;;4.00;;
10985;SDS011;5546;48.714;8.738;2022-11-12T01:38:12;4.07;;;3.73;;
10985;SDS011;5546;48.714;8.738;2022-11-12T01:40:37;4.67;;;4.07;;
10985;SDS011;5546;48.714;8.738;2022-11-12T01:43:03;4.23;;;3.77;;
10985;SDS011;5546;48.714;8.738;2022-11-12T01:45:29;6.57;;;3.83;;
10985;SDS011;5546;48.714;8.738;2022-11-12T01:47:55;3.90;;;3.50;;
10985;SDS011;5546;48.714;8.738;2022-11-12T01:50:27;4.30;;;3.87;;
10985;SDS011;5546;48.714;8.738;2022-11-12T01:52:58;4.03;;;3.63;;
10985;SDS011;5546;48.714;8.738;2022-11-12T01:55:29;4.13;;;3.70;;
10985;SDS011;5546;48.714;8.738;2022-11-12T01:58:12;7.30;;;3.90;;
10985;SDS011;5546;48.714;8.738;2022-11-12T02:00:42;4.10;;;3.70;;
10985;SDS011;5546;48.714;8.738;2022-11-12T02:03:10;3.97;;;3.57;;
10985;SDS011;5546;48.714;8.738;2022-11-12T02:05:39;4.20;;;3.80;;
10985;SDS011;5546;48.714;8.738;2022-11-12T02:08:06;4.13;;;3.50;;
10985;SDS011;5546;48.714;8.738;2022-11-12T02:10:34;5.17;;;3.70;;
10985;SDS011;5546;48.714;8.738;2022-11-12T02:13:02;6.67;;;3.97;;
10985;SDS011;5546;48.714;8.738;2022-11-12T02:15:47;4.50;;;3.97;;
10985;SDS011;5546;48.714;8.738;2022-11-12T02:18:13;5.03;;;3.77;;
10985;SDS011;5546;48.714;8.738;2022-11-12T02:20:39;3.73;;;3.40;;
10985;SDS011;5546;48.714;8.738;2022-11-12T02:23:05;3.73;;;3.33;;
10985;SDS011;5546;48.714;8.738;2022-11-12T02:25:31;3.70;;;3.30;;
10985;SDS011;5546;48.714;8.738;2022-11-12T02:27:58;3.77;;;3.43;;
10985;SDS011;5546;48.714;8.738;2022-11-12T02:30:37;4.07;;;3.37;;
10985;SDS011;5546;48.714;8.738;2022-11-12T02:33:10;3.83;;;3.50;;
10985;SDS011;5546;48.714;8.738;2022-11-12T02:35:36;4.93;;;3.30;;
10985;SDS011;5546;48.714;8.738;2022-11-12T02:38:02;3.37;;;3.00;;
10985;SDS011;5546;48.714;8.738;2022-11-12T02:40:28;3.53;;;3.00;;
10985;SDS011;5546;48.714;8.738;2022-11-12T02:42:53;3.60;;;2.97;;
10985;SDS011;5546;48.714;8.738;2022-11-12T02:45:19;3.80;;;3.00;;
10985;SDS011;5546;48.714;8.738;2022-11-12T02:47:45;4.13;;;3.13;;
10985;SDS011;5546;48.714;8.738;2022-11-12T02:50:11;3.50;;;3.20;;
10985;SDS011;5546;48.714;8.738;2022-11-12T02:52:36;3.40;;;3.10;;
10985;SDS011;5546;48.714;8.738;2022-11-12T02:55:03;3.47;;;3.17;;
10985;SDS011;5546;48.714;8.738;2022-11-12T02:57:30;3.10;;;2.73;;
10985;SDS011;5546;48.714;8.738;2022-11-12T02:59:56;3.20;;;2.90;;
10985;SDS011;5546;48.714;8.738;2022-11-12T03:02:21;2.70;;;2.50;;
10985;SDS011;5546;48.714;8.738;2022-11-12T03:04:47;3.77;;;3.10;;
10985;SDS011;5546;48.714;8.738;2022-11-12T03:07:12;3.50;;;3.00;;
10985;SDS011;5546;48.714;8.738;2022-11-12T03:09:38;3.47;;;2.80;;
10985;SDS011;5546;48.714;8.738;2022-11-12T03:12:03;2.93;;;2.63;;
10985;SDS011;5546;48.714;8.738;2022-11-12T03:14:29;2.87;;;2.67;;
10985;SDS011;5546;48.714;8.738;2022-11-12T03:16:54;3.67;;;3.10;;
10985;SDS011;5546;48.714;8.738;2022-11-12T03:19:20;4.07;;;2.60;;
10985;SDS011;5546;48.714;8.738;2022-11-12T03:21:45;3.20;;;2.90;;
10985;SDS011;5546;48.714;8.738;2022-11-12T03:24:11;3.37;;;2.83;;
10985;SDS011;5546;48.714;8.738;2022-11-12T03:26:36;3.27;;;2.60;;
10985;SDS011;5546;48.714;8.738;2022-11-12T03:29:02;2.80;;;2.60;;
10985;SDS011;5546;48.714;8.738;2022-11-12T03:31:28;3.00;;;2.70;;
10985;SDS011;5546;48.714;8.738;2022-11-12T03:33:54;3.83;;;2.80;;
10985;SDS011;5546;48.714;8.738;2022-11-12T03:36:19;2.80;;;2.60;;
10985;SDS011;5546;48.714;8.738;2022-11-12T03:38:45;2.97;;;2.67;;
10985;SDS011;5546;48.714;8.738;2022-11-12T03:41:10;2.90;;;2.70;;
10985;SDS011;5546;48.714;8.738;2022-11-12T03:43:36;2.70;;;2.50;;
10985;SDS011;5546;48.714;8.738;2022-11-12T03:46:01;2.60;;;2.40;;
10985;SDS011;5546;48.714;8.738;2022-11-12T03:48:27;3.70;;;2.50;;
10985;SDS011;5546;48.714;8.738;2022-11-12T03:50:56;4.63;;;3.07;;
10985;SDS011;5546;48.714;8.738;2022-11-12T03:53:22;2.97;;;2.77;;
10985;SDS011;5546;48.714;8.738;2022-11-12T03:55:48;3.83;;;2.57;;
10985;SDS011;5546;48.714;8.738;2022-11-12T03:58:13;2.73;;;2.53;;
10985;SDS011;5546;48.714;8.738;2022-11-12T04:00:39;2.30;;;2.10;;
10985;SDS011;5546;48.714;8.738;2022-11-12T04:03:04;2.50;;;2.30;;
10985;SDS011;5546;48.714;8.738;2022-11-12T04:05:30;2.47;;;2.27;;
10985;SDS011;5546;48.714;8.738;2022-11-12T04:08:16;4.97;;;2.37;;
10985;SDS011;5546;48.714;8.738;2022-11-12T04:11:02;2.57;;;2.37;;
10985;SDS011;5546;48.714;8.738;2022-11-12T04:13:33;3.00;;;2.30;;
10985;SDS011;5546;48.714;8.738;2022-11-12T04:18:52;2.70;;;2.50;;
10985;SDS011;5546;48.714;8.738;2022-11-12T04:21:39;2.70;;;2.50;;
10985;SDS011;5546;48.714;8.738;2022-11-12T04:24:14;3.37;;;2.40;;
10985;SDS011;5546;48.714;8.738;2022-11-12T04:27:19;3.17;;;2.87;;
10985;SDS011;5546;48.714;8.738;2022-11-12T04:29:47;2.50;;;2.30;;
10985;SDS011;5546;48.714;8.738;2022-11-12T04:32:33;2.80;;;2.60;;
10985;SDS011;5546;48.714;8.738;2022-11-12T04:35:11;4.57;;;2.60;;
10985;SDS011;5546;48.714;8.738;2022-11-12T04:37:37;2.73;;;2.53;;
10985;SDS011;5546;48.714;8.738;2022-11-12T04:40:10;2.53;;;2.33;;
10985;SDS011;5546;48.714;8.738;2022-11-12T04:42:55;4.70;;;2.40;;
10985;SDS011;5546;48.714;8.738;2022-11-12T04:45:39;2.23;;;2.07;;
10985;SDS011;5546;48.714;8.738;2022-11-12T04:48:07;3.27;;;2.43;;
10985;SDS011;5546;48.714;8.738;2022-11-12T04:50:33;2.40;;;2.20;;
10985;SDS011;5546;48.714;8.738;2022-11-12T04:52:59;2.80;;;2.33;;
10985;SDS011;5546;48.714;8.738;2022-11-12T04:55:24;2.47;;;2.27;;
10985;SDS011;5546;48.714;8.738;2022-11-12T04:57:50;3.67;;;2.87;;
10985;SDS011;5546;48.714;8.738;2022-11-12T05:00:15;4.67;;;3.70;;
10985;SDS011;5546;48.714;8.738;2022-11-12T05:02:41;5.23;;;3.60;;
10985;SDS011;5546;48.714;8.738;2022-11-12T05:05:07;3.10;;;2.70;;
10985;SDS011;5546;48.714;8.738;2022-11-12T05:07:32;2.60;;;2.40;;
10985;SDS011;5546;48.714;8.738;2022-11-12T05:09:58;3.70;;;2.47;;
10985;SDS011;5546;48.714;8.738;2022-11-12T05:12:24;2.37;;;2.17;;
10985;SDS011;5546;48.714;8.738;2022-11-12T05:14:49;2.30;;;2.10;;
10985;SDS011;5546;48.714;8.738;2022-11-12T05:17:14;2.20;;;2.00;;
10985;SDS011;5546;48.714;8.738;2022-11-12T05:19:41;2.53;;;1.87;;
10985;SDS011;5546;48.714;8.738;2022-11-12T05:22:08;2.27;;;2.07;;
10985;SDS011;5546;48.714;8.738;2022-11-12T05:24:36;2.30;;;2.10;;
10985;SDS011;5546;48.714;8.738;2022-11-12T05:27:04;2.20;;;2.00;;
10985;SDS011;5546;48.714;8.738;2022-11-12T05:29:33;2.30;;;2.10;;
10985;SDS011;5546;48.714;8.738;2022-11-12T05:31:59;3.10;;;2.20;;
10985;SDS011;5546;48.714;8.738;2022-11-12T05:34:25;2.03;;;1.83;;
10985;SDS011;5546;48.714;8.738;2022-11-12T05:36:50;2.13;;;1.97;;
10985;SDS011;5546;48.714;8.738;2022-11-12T05:39:16;5.33;;;3.00;;
10985;SDS011;5546;48.714;8.738;2022-11-12T05:41:42;3.73;;;3.13;;
10985;SDS011;5546;48.714;8.738;2022-11-12T05:44:08;6.73;;;4.40;;
10985;SDS011;5546;48.714;8.738;2022-11-12T05:46:33;6.70;;;4.13;;
10985;SDS011;5546;48.714;8.738;2022-11-12T05:48:59;4.60;;;3.47;;
10985;SDS011;5546;48.714;8.738;2022-11-12T05:51:24;6.03;;;3.90;;
10985;SDS011;5546;48.714;8.738;2022-11-12T05:53:50;2.60;;;2.30;;
10985;SDS011;5546;48.714;8.738;2022-11-12T05:56:15;2.83;;;2.40;;
10985;SDS011;5546;48.714;8.738;2022-11-12T05:58:41;2.43;;;2.23;;
10985;SDS011;5546;48.714;8.738;2022-11-12T06:01:06;2.27;;;2.07;;
10985;SDS011;5546;48.714;8.738;2022-11-12T06:03:32;2.67;;;2.33;;
10985;SDS011;5546;48.714;8.738;2022-11-12T06:05:57;3.00;;;2.47;;
10985;SDS011;5546;48.714;8.738;2022-11-12T06:08:23;4.47;;;2.20;;
10985;SDS011;5546;48.714;8.738;2022-11-12T06:10:49;2.70;;;2.50;;
10985;SDS011;5546;48.714;8.738;2022-11-12T06:13:16;2.33;;;2.13;;
10985;SDS011;5546;48.714;8.738;2022-11-12T06:15:42;2.60;;;2.37;;
10985;SDS011;5546;48.714;8.738;2022-11-12T06:18:08;6.43;;;6.03;;
10985;SDS011;5546;48.714;8.738;2022-11-12T06:20:33;4.17;;;3.87;;
10985;SDS011;5546;48.714;8.738;2022-11-12T06:22:59;5.30;;;4.90;;
10985;SDS011;5546;48.714;8.738;2022-11-12T06:25:25;3.60;;;2.80;;
10985;SDS011;5546;48.714;8.738;2022-11-12T06:27:51;5.77;;;5.37;;
10985;SDS011;5546;48.714;8.738;2022-11-12T06:30:17;4.23;;;3.93;;
10985;SDS011;5546;48.714;8.738;2022-11-12T06:32:46;2.40;;;2.20;;
10985;SDS011;5546;48.714;8.738;2022-11-12T06:35:12;2.87;;;2.10;;
10985;SDS011;5546;48.714;8.738;2022-11-12T06:37:39;4.10;;;3.70;;
10985;SDS011;5546;48.714;8.738;2022-11-12T06:40:05;2.30;;;2.10;;
10985;SDS011;5546;48.714;8.738;2022-11-12T06:42:31;2.50;;;2.30;;
10985;SDS011;5546;48.714;8.738;2022-11-12T06:44:56;2.87;;;2.33;;
10985;SDS011;5546;48.714;8.738;2022-11-12T06:47:22;4.30;;;4.00;;
10985;SDS011;5546;48.714;8.738;2022-11-12T06:49:47;3.40;;;3.10;;
10985;SDS011;5546;48.714;8.738;2022-11-12T06:52:14;2.70;;;2.50;;
10985;SDS011;5546;48.714;8.738;2022-11-12T06:54:39;2.30;;;2.10;;
10985;SDS011;5546;48.714;8.738;2022-11-12T06:57:05;4.03;;;3.63;;
10985;SDS011;5546;48.714;8.738;2022-11-12T06:59:31;2.60;;;2.40;;
10985;SDS011;5546;48.714;8.738;2022-11-12T07:01:56;2.60;;;2.40;;
10985;SDS011;5546;48.714;8.738;2022-11-12T07:04:24;2.87;;;2.40;;
10985;SDS011;5546;48.714;8.738;2022-11-12T07:06:50;4.00;;;2.83;;
10985;SDS011;5546;48.714;8.738;2022-11-12T07:09:15;3.30;;;2.80;;
10985;SDS011;5546;48.714;8.738;2022-11-12T07:11:41;3.43;;;2.60;;
10985;SDS011;5546;48.714;8.738;2022-11-12T07:14:07;2.43;;;2.23;;
10985;SDS011;5546;48.714;8.738;2022-11-12T07:16:33;2.40;;;2.20;;
10985;SDS011;5546;48.714;8.738;2022-11-12T07:19:01;2.43;;;2.23;;
10985;SDS011;5546;48.714;8.738;2022-11-12T07:21:27;2.80;;;2.60;;
10985;SDS011;5546;48.714;8.738;2022-11-12T07:23:53;2.57;;;2.37;;
10985;SDS011;5546;48.714;8.738;2022-11-12T07:26:23;2.83;;;2.40;;
10985;SDS011;5546;48.714;8.738;2022-11-12T07:28:51;2.40;;;2.20;;
10985;SDS011;5546;48.714;8.738;2022-11-12T07:31:17;2.20;;;2.00;;
10985;SDS011;5546;48.714;8.738;2022-11-12T07:33:44;2.60;;;2.40;;
10985;SDS011;5546;48.714;8.738;2022-11-12T07:36:13;2.50;;;2.20;;
10985;SDS011;5546;48.714;8.738;2022-11-12T07:38:40;2.40;;;2.20;;
10985;SDS011;5546;48.714;8.738;2022-11-12T07:41:08;2.50;;;2.30;;
10985;SDS011;5546;48.714;8.738;2022-11-12T07:43:39;2.17;;;1.97;;
10985;SDS011;5546;48.714;8.738;2022-11-12T07:46:08;2.30;;;2.10;;
10985;SDS011;5546;48.714;8.738;2022-11-12T07:48:36;2.70;;;2.50;;
10985;SDS011;5546;48.714;8.738;2022-11-12T07:51:03;2.10;;;1.90;;
10985;SDS011;5546;48.714;8.738;2022-11-12T07:53:40;4.03;;;2.20;;
10985;SDS011;5546;48.714;8.738;2022-11-12T07:56:06;2.37;;;2.17;;
10985;SDS011;5546;48.714;8.738;2022-11-12T07:58:34;2.77;;;2.13;;
10985;SDS011;5546;48.714;8.738;2022-11-12T08:01:10;2.37;;;2.17;;
10985;SDS011;5546;48.714;8.738;2022-11-12T08:03:38;2.30;;;2.10;;
10985;SDS011;5546;48.714;8.738;2022-11-12T08:06:04;2.90;;;2.50;;
10985;SDS011;5546;48.714;8.738;2022-11-12T08:08:30;2.40;;;2.20;;
10985;SDS011;5546;48.714;8.738;2022-11-12T08:10:56;4.40;;;2.37;;
10985;SDS011;5546;48.714;8.738;2022-11-12T08:13:22;2.53;;;2.33;;
10985;SDS011;5546;48.714;8.738;2022-11-12T08:15:48;3.03;;;2.40;;
10985;SDS011;5546;48.714;8.738;2022-11-12T08:18:14;2.67;;;2.47;;
10985;SDS011;5546;48.714;8.738;2022-11-12T08:20:39;3.20;;;2.87;;
10985;SDS011;5546;48.714;8.738;2022-11-12T08:23:05;3.50;;;2.50;;
10985;SDS011;5546;48.714;8.738;2022-11-12T08:25:30;3.10;;;2.80;;
10985;SDS011;5546;48.714;8.738;2022-11-12T08:27:56;2.30;;;2.10;;
10985;SDS011;5546;48.714;8.738;2022-11-12T08:30:23;3.30;;;2.37;;
10985;SDS011;5546;48.714;8.738;2022-11-12T08:32:56;3.00;;;2.37;;
10985;SDS011;5546;48.714;8.738;2022-11-12T08:35:21;2.97;;;2.67;;
10985;SDS011;5546;48.714;8.738;2022-11-12T08:37:48;2.87;;;2.57;;
10985;SDS011;5546;48.714;8.738;2022-11-12T08:40:14;3.93;;;2.90;;
10985;SDS011;5546;48.714;8.738;2022-11-12T08:42:39;4.03;;;2.70;;
10985;SDS011;5546;48.714;8.738;2022-11-12T08:45:05;3.67;;;2.60;;
10985;SDS011;5546;48.714;8.738;2022-11-12T08:47:31;4.03;;;3.10;;
10985;SDS011;5546;48.714;8.738;2022-11-12T08:49:56;3.30;;;3.00;;
10985;SDS011;5546;48.714;8.738;2022-11-12T08:52:22;4.83;;;3.20;;
10985;SDS011;5546;48.714;8.738;2022-11-12T08:54:47;4.27;;;3.03;;
10985;SDS011;5546;48.714;8.738;2022-11-12T08:57:13;7.43;;;3.77;;
10985;SDS011;5546;48.714;8.738;2022-11-12T08:59:38;4.80;;;3.63;;
10985;SDS011;5546;48.714;8.738;2022-11-12T09:02:03;4.90;;;3.30;;
10985;SDS011;5546;48.714;8.738;2022-11-12T09:04:30;5.10;;;3.33;;
10985;SDS011;5546;48.714;8.738;2022-11-12T09:06:56;4.50;;;3.43;;
10985;SDS011;5546;48.714;8.738;2022-11-12T09:09:21;4.53;;;3.03;;
10985;SDS011;5546;48.714;8.738;2022-11-12T09:11:47;3.70;;;2.90;;
10985;SDS011;5546;48.714;8.738;2022-11-12T09:14:13;6.90;;;3.77;;
10985;SDS011;5546;48.714;8.738;2022-11-12T09:16:38;3.90;;;3.00;;
10985;SDS011;5546;48.714;8.738;2022-11-12T09:19:04;4.70;;;3.00;;
10985;SDS011;5546;48.714;8.738;2022-11-12T09:21:32;4.97;;;3.57;;
10985;SDS011;5546;48.714;8.738;2022-11-12T09:23:58;4.73;;;3.27;;
10985;SDS011;5546;48.714;8.738;2022-11-12T09:26:23;3.67;;;3.13;;
10985;SDS011;5546;48.714;8.738;2022-11-12T09:28:48;4.90;;;3.27;;
10985;SDS011;5546;48.714;8.738;2022-11-12T09:31:16;4.10;;;3.20;;
10985;SDS011;5546;48.714;8.738;2022-11-12T09:33:41;5.63;;;2.85;;
10985;SDS011;5546;48.714;8.738;2022-11-12T09:36:07;3.15;;;2.85;;
10985;SDS011;5546;48.714;8.738;2022-11-12T09:38:32;3.70;;;3.03;;
10985;SDS011;5546;48.714;8.738;2022-11-12T09:41:18;3.75;;;3.10;;
10985;SDS011;5546;48.714;8.738;2022-11-12T09:43:59;3.53;;;2.97;;
10985;SDS011;5546;48.714;8.738;2022-11-12T09:46:42;4.30;;;3.00;;
10985;SDS011;5546;48.714;8.738;2022-11-12T09:51:50;3.05;;;2.75;;
10985;SDS011;5546;48.714;8.738;2022-11-12T09:54:25;3.10;;;2.72;;
10985;SDS011;5546;48.714;8.738;2022-11-12T09:56:54;3.42;;;2.83;;
10985;SDS011;5546;48.714;8.738;2022-11-12T09:59:20;2.80;;;2.40;;
10985;SDS011;5546;48.714;8.738;2022-11-12T10:04:30;4.75;;;2.65;;
10985;SDS011;5546;48.714;8.738;2022-11-12T10:07:27;3.13;;;2.65;;
10985;SDS011;5546;48.714;8.738;2022-11-12T10:10:16;2.85;;;2.60;;
10985;SDS011;5546;48.714;8.738;2022-11-12T10:12:59;3.65;;;2.67;;
10985;SDS011;5546;48.714;8.738;2022-11-12T10:15:50;2.67;;;2.30;;
10985;SDS011;5546;48.714;8.738;2022-11-12T10:24:35;13.32;;;5.25;;
10985;SDS011;5546;48.714;8.738;2022-11-12T10:27:07;3.40;;;2.78;;
10985;SDS011;5546;48.714;8.738;2022-11-12T10:29:41;5.43;;;3.83;;
10985;SDS011;5546;48.714;8.738;2022-11-12T10:32:15;4.28;;;3.05;;
10985;SDS011;5546;48.714;8.738;2022-11-12T10:34:41;3.13;;;2.63;;
10985;SDS011;5546;48.714;8.738;2022-11-12T10:37:10;3.45;;;3.10;;
10985;SDS011;5546;48.714;8.738;2022-11-12T10:39:43;3.60;;;2.55;;
10985;SDS011;5546;48.714;8.738;2022-11-12T10:42:13;3.53;;;2.80;;
10985;SDS011;5546;48.714;8.738;2022-11-12T10:44:40;5.13;;;3.60;;
10985;SDS011;5546;48.714;8.738;2022-11-12T10:49:58;2.90;;;2.70;;
10985;SDS011;5546;48.714;8.738;2022-11-12T10:52:32;4.90;;;2.90;;
10985;SDS011;5546;48.714;8.738;2022-11-12T10:55:14;3.83;;;2.53;;
10985;SDS011;5546;48.714;8.738;2022-11-12T10:57:42;3.22;;;2.70;;
10985;SDS011;5546;48.714;8.738;2022-11-12T11:02:46;3.03;;;2.70;;
10985;SDS011;5546;48.714;8.738;2022-11-12T11:05:29;5.90;;;2.85;;
10985;SDS011;5546;48.714;8.738;2022-11-12T11:08:02;4.20;;;3.60;;
10985;SDS011;5546;48.714;8.738;2022-11-12T11:10:29;3.55;;;3.20;;
10985;SDS011;5546;48.714;8.738;2022-11-12T11:13:17;5.18;;;3.22;;
10985;SDS011;5546;48.714;8.738;2022-11-12T11:18:34;5.70;;;3.50;;
10985;SDS011;5546;48.714;8.738;2022-11-12T11:23:56;4.68;;;3.38;;
10985;SDS011;5546;48.714;8.738;2022-11-12T11:26:38;3.92;;;3.00;;
10985;SDS011;5546;48.714;8.738;2022-11-12T11:32:24;4.93;;;3.45;;
10985;SDS011;5546;48.714;8.738;2022-11-12T11:34:58;3.22;;;2.92;;
10985;SDS011;5546;48.714;8.738;2022-11-12T11:37:46;6.53;;;5.28;;
10985;SDS011;5546;48.714;8.738;2022-11-12T11:40:30;4.55;;;3.88;;
10985;SDS011;5546;48.714;8.738;2022-11-12T11:43:04;6.37;;;3.90;;
10985;SDS011;5546;48.714;8.738;2022-11-12T11:52:00;7.17;;;5.00;;
10985;SDS011;5546;48.714;8.738;2022-11-12T11:54:38;5.67;;;4.77;;
10985;SDS011;5546;48.714;8.738;2022-11-12T11:57:10;7.63;;;5.57;;
10985;SDS011;5546;48.714;8.738;2022-11-12T12:02:48;8.83;;;6.00;;
10985;SDS011;5546;48.714;8.738;2022-11-12T12:05:39;9.93;;;6.33;;
10985;SDS011;5546;48.714;8.738;2022-11-12T12:08:10;10.30;;;6.47;;
10985;SDS011;5546;48.714;8.738;2022-11-12T12:10:55;7.23;;;4.27;;
10985;SDS011;5546;48.714;8.738;2022-11-12T12:13:35;5.03;;;4.17;;
10985;SDS011;5546;48.714;8.738;2022-11-12T12:16:21;5.77;;;4.27;;
10985;SDS011;5546;48.714;8.738;2022-11-12T12:21:32;5.33;;;3.73;;
10985;SDS011;5546;48.714;8.738;2022-11-12T12:24:04;6.50;;;3.90;;
10985;SDS011;5546;48.714;8.738;2022-11-12T12:26:41;6.07;;;4.77;;
10985;SDS011;5546;48.714;8.738;2022-11-12T12:31:53;7.17;;;4.87;;
10985;SDS011;5546;48.714;8.738;2022-11-12T12:34:34;5.67;;;4.37;;
10985;SDS011;5546;48.714;8.738;2022-11-12T12:40:04;6.43;;;4.60;;
10985;SDS011;5546;48.714;8.738;2022-11-12T12:42:40;7.20;;;4.47;;
10985;SDS011;5546;48.714;8.738;2022-11-12T12:47:56;5.80;;;4.00;;
10985;SDS011;5546;48.714;8.738;2022-11-12T12:50:23;7.63;;;4.63;;
10985;SDS011;5546;48.714;8.738;2022-11-12T12:52:59;6.60;;;4.60;;
10985;SDS011;5546;48.714;8.738;2022-11-12T12:55:34;5.33;;;3.67;;
10985;SDS011;5546;48.714;8.738;2022-11-12T12:58:07;4.40;;;3.90;;
10985;SDS011;5546;48.714;8.738;2022-11-12T13:00:47;5.97;;;4.17;;
10985;SDS011;5546;48.714;8.738;2022-11-12T13:08:47;4.47;;;3.93;;
10985;SDS011;5546;48.714;8.738;2022-11-12T13:43:01;4.33;;;3.17;;
10985;SDS011;5546;48.714;8.738;2022-11-12T13:45:45;3.30;;;3.00;;
10985;SDS011;5546;48.714;8.738;2022-11-12T13:49:02;2.80;;;2.60;;
10985;SDS011;5546;48.714;8.738;2022-11-12T13:51:17;3.87;;;2.83;;
10985;SDS011;5546;48.714;8.738;2022-11-12T13:53:51;4.43;;;2.40;;
10985;SDS011;5546;48.714;8.738;2022-11-12T13:56:30;5.30;;;4.07;;
10985;SDS011;5546;48.714;8.738;2022-11-12T13:59:12;3.87;;;2.50;;
10985;SDS011;5546;48.714;8.738;2022-11-12T14:01:39;2.57;;;2.37;;
10985;SDS011;5546;48.714;8.738;2022-11-12T14:04:06;5.77;;;3.40;;
10985;SDS011;5546;48.714;8.738;2022-11-12T14:06:37;4.07;;;2.80;;
10985;SDS011;5546;48.714;8.738;2022-11-12T14:12:04;3.87;;;3.20;;
10985;SDS011;5546;48.714;8.738;2022-11-12T14:17:22;6.33;;;3.90;;
10985;SDS011;5546;48.714;8.738;2022-11-12T14:22:43;5.53;;;4.17;;
10985;SDS011;5546;48.714;8.738;2022-11-12T14:25:17;4.27;;;3.60;;
10985;SDS011;5546;48.714;8.738;2022-11-12T14:27:45;4.13;;;3.10;;
10985;SDS011;5546;48.714;8.738;2022-11-12T14:32:45;6.17;;;3.20;;
10985;SDS011;5546;48.714;8.738;2022-11-12T14:35:20;6.13;;;3.00;;
10985;SDS011;5546;48.714;8.738;2022-11-12T14:40:52;3.40;;;2.90;;
10985;SDS011;5546;48.714;8.738;2022-11-12T14:43:31;4.00;;;3.10;;
10985;SDS011;5546;48.714;8.738;2022-11-12T14:45:58;3.70;;;2.73;;
10985;SDS011;5546;48.714;8.738;2022-11-12T14:48:25;4.47;;;2.90;;
10985;SDS011;5546;48.714;8.738;2022-11-12T14:50:54;3.43;;;2.60;;
10985;SDS011;5546;48.714;8.738;2022-11-12T14:56:14;3.33;;;2.50;;
10985;SDS011;5546;48.714;8.738;2022-11-12T14:58:52;3.93;;;2.43;;
10985;SDS011;5546;48.714;8.738;2022-11-12T15:01:24;4.33;;;2.47;;
10985;SDS011;5546;48.714;8.738;2022-11-12T15:06:35;3.60;;;2.37;;
10985;SDS011;5546;48.714;8.738;2022-11-12T15:09:02;3.13;;;2.43;;
10985;SDS011;5546;48.714;8.738;2022-11-12T15:11:33;4.20;;;2.30;;
10985;SDS011;5546;48.714;8.738;2022-11-12T15:14:08;3.87;;;2.30;;
10985;SDS011;5546;48.714;8.738;2022-11-12T15:16:43;5.43;;;2.33;;
10985;SDS011;5546;48.714;8.738;2022-11-12T15:19:22;3.43;;;2.70;;
10985;SDS011;5546;48.714;8.738;2022-11-12T15:21:50;4.63;;;2.60;;
10985;SDS011;5546;48.714;8.738;2022-11-12T15:24:36;2.50;;;2.23;;
10985;SDS011;5546;48.714;8.738;2022-11-12T15:33:06;2.90;;;2.70;;
10985;SDS011;5546;48.714;8.738;2022-11-12T15:35:39;5.67;;;3.40;;
10985;SDS011;5546;48.714;8.738;2022-11-12T15:38:14;4.63;;;3.00;;
10985;SDS011;5546;48.714;8.738;2022-11-12T15:40:46;3.13;;;2.50;;
10985;SDS011;5546;48.714;8.738;2022-11-12T15:43:20;3.87;;;2.80;;
10985;SDS011;5546;48.714;8.738;2022-11-12T15:45:48;7.90;;;3.30;;
10985;SDS011;5546;48.714;8.738;2022-11-12T15:48:14;3.63;;;3.00;;
10985;SDS011;5546;48.714;8.738;2022-11-12T15:50:40;3.40;;;3.00;;
10985;SDS011;5546;48.714;8.738;2022-11-12T15:53:06;5.07;;;3.00;;
10985;SDS011;5546;48.714;8.738;2022-11-12T15:55:32;4.90;;;3.30;;
10985;SDS011;5546;48.714;8.738;2022-11-12T15:57:58;5.80;;;3.67;;
10985;SDS011;5546;48.714;8.738;2022-11-12T16:00:25;3.80;;;3.30;;
10985;SDS011;5546;48.714;8.738;2022-11-12T16:02:56;3.70;;;3.30;;
10985;SDS011;5546;48.714;8.738;2022-11-12T16:05:24;6.23;;;3.87;;
10985;SDS011;5546;48.714;8.738;2022-11-12T16:07:50;5.67;;;3.70;;
10985;SDS011;5546;48.714;8.738;2022-11-12T16:10:16;5.50;;;3.60;;
10985;SDS011;5546;48.714;8.738;2022-11-12T16:12:43;9.63;;;5.60;;
10985;SDS011;5546;48.714;8.738;2022-11-12T16:15:13;5.57;;;4.20;;
10985;SDS011;5546;48.714;8.738;2022-11-12T16:17:42;6.33;;;4.43;;
10985;SDS011;5546;48.714;8.738;2022-11-12T16:20:16;6.37;;;3.77;;
10985;SDS011;5546;48.714;8.738;2022-11-12T16:22:42;4.53;;;3.20;;
10985;SDS011;5546;48.714;8.738;2022-11-12T16:25:08;5.53;;;3.50;;
10985;SDS011;5546;48.714;8.738;2022-11-12T16:27:35;4.77;;;3.40;;
10985;SDS011;5546;48.714;8.738;2022-11-12T16:30:02;4.80;;;3.43;;
10985;SDS011;5546;48.714;8.738;2022-11-12T16:32:28;5.90;;;4.27;;
10985;SDS011;5546;48.714;8.738;2022-11-12T16:34:54;7.13;;;4.53;;
10985;SDS011;5546;48.714;8.738;2022-11-12T16:37:19;5.77;;;4.67;;
10985;SDS011;5546;48.714;8.738;2022-11-12T16:39:45;7.30;;;5.00;;
10985;SDS011;5546;48.714;8.738;2022-11-12T16:42:10;6.37;;;5.23;;
10985;SDS011;5546;48.714;8.738;2022-11-12T16:44:36;9.97;;;8.97;;
10985;SDS011;5546;48.714;8.738;2022-11-12T16:47:02;7.80;;;5.80;;
10985;SDS011;5546;48.714;8.738;2022-11-12T16:49:28;8.60;;;6.87;;
10985;SDS011;5546;48.714;8.738;2022-11-12T16:51:54;9.30;;;6.83;;
10985;SDS011;5546;48.714;8.738;2022-11-12T16:54:19;8.07;;;6.20;;
10985;SDS011;5546;48.714;8.738;2022-11-12T16:56:45;7.57;;;5.87;;
10985;SDS011;5546;48.714;8.738;2022-11-12T16:59:11;6.53;;;5.07;;
10985;SDS011;5546;48.714;8.738;2022-11-12T17:01:39;7.57;;;5.03;;
10985;SDS011;5546;48.714;8.738;2022-11-12T17:04:05;6.53;;;4.60;;